createdAt,value
2018-06-13T00:02:12.939Z,6.70
2018-06-13T00:04:43.459Z,8.13
2018-06-13T00:07:13.783Z,9.53
2018-06-13T00:09:43.787Z,7.57
2018-06-13T00:12:13.923Z,10.20
2018-06-13T00:14:44.167Z,9.00
2018-06-13T00:17:14.422Z,8.20
2018-06-13T00:19:44.654Z,12.23
2018-06-13T00:22:14.808Z,6.43
2018-06-13T00:24:45.023Z,7.40
2018-06-13T00:27:15.159Z,7.70
2018-06-13T00:29:45.844Z,9.23
2018-06-13T00:32:15.963Z,4.83
2018-06-13T00:34:46.100Z,6.77
2018-06-13T00:37:16.273Z,6.70
2018-06-13T00:39:46.442Z,12.80
2018-06-13T00:42:16.562Z,11.13
2018-06-13T00:44:46.878Z,12.67
2018-06-13T00:47:17.066Z,7.83
2018-06-13T00:49:47.209Z,5.50
2018-06-13T00:52:17.101Z,7.10
2018-06-13T00:54:47.561Z,12.83
2018-06-13T00:57:17.708Z,8.03
2018-06-13T00:59:47.795Z,6.57
2018-06-13T01:02:17.962Z,8.10
2018-06-13T01:04:48.555Z,6.63
2018-06-13T01:07:18.468Z,11.07
2018-06-13T01:09:48.711Z,6.77
2018-06-13T01:12:18.951Z,5.53
2018-06-13T01:14:49.174Z,6.87
2018-06-13T01:17:19.134Z,12.87
2018-06-13T01:19:49.399Z,7.17
2018-06-13T01:22:19.504Z,10.70
2018-06-13T01:24:49.923Z,7.70
2018-06-13T01:27:20.190Z,10.23
2018-06-13T01:29:50.245Z,9.77
2018-06-13T01:32:20.446Z,10.23
2018-06-13T01:34:50.540Z,9.20
2018-06-13T01:37:20.731Z,11.87
2018-06-13T01:39:50.876Z,7.10
2018-06-13T01:42:20.994Z,6.60
2018-06-13T01:44:51.312Z,7.30
2018-06-13T01:47:21.476Z,4.73
2018-06-13T01:49:51.964Z,9.17
2018-06-13T01:52:21.928Z,12.37
2018-06-13T01:54:52.128Z,12.80
2018-06-13T01:57:22.512Z,7.17
2018-06-13T01:59:52.730Z,9.97
2018-06-13T02:02:22.955Z,8.07
2018-06-13T02:04:53.071Z,9.10
2018-06-13T02:07:23.342Z,8.33
2018-06-13T02:09:53.827Z,13.33
2018-06-13T02:12:24.007Z,10.57
2018-06-13T02:14:54.191Z,12.90
2018-06-13T02:17:24.282Z,8.37
2018-06-13T02:19:54.631Z,7.93
2018-06-13T02:22:24.733Z,8.13
2018-06-13T02:24:54.983Z,8.53
2018-06-13T02:27:24.817Z,10.70
2018-06-13T02:29:55.106Z,7.57
2018-06-13T02:32:25.339Z,8.73
2018-06-13T02:34:55.138Z,11.27
2018-06-13T02:37:25.352Z,8.33
2018-06-13T02:39:55.493Z,10.27
2018-06-13T02:42:25.779Z,6.40
2018-06-13T02:44:55.712Z,7.70
2018-06-13T02:47:25.935Z,6.33
2018-06-13T02:49:56.184Z,7.77
2018-06-13T02:52:26.375Z,10.33
2018-06-13T02:54:56.646Z,9.47
2018-06-13T02:57:26.825Z,5.83
2018-06-13T02:59:56.958Z,8.00
2018-06-13T03:02:27.172Z,11.73
2018-06-13T03:04:57.284Z,8.90
2018-06-13T03:07:27.417Z,5.43
2018-06-13T03:09:57.640Z,6.47
2018-06-13T03:12:27.848Z,7.77
2018-06-13T03:14:57.902Z,14.47
2018-06-13T03:17:28.089Z,11.30
2018-06-13T03:19:58.263Z,9.80
2018-06-13T03:22:28.726Z,9.73
2018-06-13T03:24:58.775Z,8.27
2018-06-13T03:27:29.307Z,12.03
2018-06-13T03:29:59.646Z,12.97
2018-06-13T03:32:29.738Z,10.93
2018-06-13T03:35:00.047Z,16.20
2018-06-13T03:37:30.274Z,13.70
2018-06-13T03:40:00.415Z,13.43
2018-06-13T03:42:30.610Z,11.33
2018-06-13T03:45:01.168Z,12.17
2018-06-13T03:47:37.743Z,12.07
2018-06-13T03:50:07.910Z,15.47
2018-06-13T03:52:38.159Z,14.73
2018-06-13T03:55:08.601Z,13.83
2018-06-13T03:57:38.870Z,14.43
2018-06-13T04:00:08.736Z,12.73
2018-06-13T04:02:38.784Z,14.07
2018-06-13T04:05:08.970Z,12.00
2018-06-13T04:07:39.226Z,13.30
2018-06-13T04:10:09.470Z,16.47
2018-06-13T04:12:39.674Z,17.87
2018-06-13T04:15:10.074Z,15.40
2018-06-13T04:17:40.220Z,18.67
2018-06-13T04:20:10.383Z,19.23
2018-06-13T04:22:40.631Z,18.00
2018-06-13T04:25:11.114Z,19.60
2018-06-13T04:27:41.102Z,14.83
2018-06-13T04:30:11.210Z,17.40
2018-06-13T04:32:41.471Z,19.33
2018-06-13T04:35:11.741Z,21.20
2018-06-13T04:37:41.911Z,21.50
2018-06-13T04:40:12.099Z,18.53
2018-06-13T04:42:42.241Z,20.20
2018-06-13T04:45:12.631Z,20.87
2018-06-13T04:47:43.419Z,19.97
2018-06-13T04:50:13.611Z,18.37
2018-06-13T04:52:44.139Z,19.60
2018-06-13T04:55:14.646Z,20.57
2018-06-13T04:57:44.771Z,19.07
2018-06-13T05:00:15.052Z,23.40
2018-06-13T05:02:46.142Z,21.33
2018-06-13T05:05:16.254Z,23.50
2018-06-13T05:07:46.497Z,46.07
2018-06-13T05:10:16.580Z,22.87
2018-06-13T05:12:46.906Z,20.60
2018-06-13T05:15:17.084Z,35.20
2018-06-13T05:17:47.196Z,67.80
2018-06-13T05:20:17.288Z,46.63
2018-06-13T05:22:48.140Z,35.80
2018-06-13T05:25:18.651Z,96.97
2018-06-13T05:27:48.822Z,49.03
2018-06-13T05:30:18.890Z,32.00
2018-06-13T05:32:49.466Z,74.90
2018-06-13T05:35:19.702Z,65.00
2018-06-13T05:37:50.080Z,62.17
2018-06-13T05:40:20.394Z,96.67
2018-06-13T05:42:50.619Z,70.57
2018-06-13T05:45:20.730Z,32.13
2018-06-13T05:47:50.913Z,27.10
2018-06-13T05:50:21.051Z,21.77
2018-06-13T05:52:51.435Z,76.03
2018-06-13T05:55:21.673Z,26.67
2018-06-13T05:57:51.855Z,23.70
2018-06-13T06:00:22.038Z,24.07
2018-06-13T06:02:52.186Z,33.67
2018-06-13T06:05:22.774Z,24.90
2018-06-13T06:07:53.099Z,23.63
2018-06-13T06:10:23.269Z,21.70
2018-06-13T06:12:53.555Z,21.53
2018-06-13T06:15:23.966Z,28.20
2018-06-13T06:17:54.039Z,26.90
2018-06-13T06:20:24.257Z,23.03
2018-06-13T06:22:55.145Z,28.57
2018-06-13T06:25:25.264Z,23.63
2018-06-13T06:27:55.545Z,19.47
2018-06-13T06:30:25.729Z,22.93
2018-06-13T06:32:55.939Z,37.43
2018-06-13T06:35:26.189Z,30.33
2018-06-13T06:37:56.353Z,34.60
2018-06-13T06:40:26.828Z,24.70
2018-06-13T06:42:57.026Z,36.30
2018-06-13T06:45:27.063Z,52.10
2018-06-13T06:47:56.918Z,104.27
2018-06-13T06:50:27.009Z,37.00
2018-06-13T06:52:57.160Z,31.07
2018-06-13T06:55:27.383Z,22.53
2018-06-13T06:57:57.751Z,29.43
2018-06-13T07:00:27.938Z,29.83
2018-06-13T07:02:58.051Z,23.23
2018-06-13T07:05:28.229Z,20.67
2018-06-13T07:07:58.413Z,22.90
2018-06-13T07:10:28.715Z,20.50
2018-06-13T07:12:58.858Z,33.60
2018-06-13T07:15:28.872Z,31.13
2018-06-13T07:17:59.025Z,29.73
2018-06-13T07:20:29.100Z,24.13
2018-06-13T07:22:59.362Z,28.87
2018-06-13T07:25:29.560Z,26.73
2018-06-13T07:27:59.964Z,28.17
2018-06-13T07:30:30.090Z,24.57
2018-06-13T07:33:00.356Z,23.50
2018-06-13T07:35:30.756Z,20.23
2018-06-13T07:38:00.973Z,24.10
2018-06-13T07:40:31.297Z,22.20
2018-06-13T07:43:01.401Z,21.70
2018-06-13T07:45:31.570Z,22.40
2018-06-13T07:48:01.834Z,23.33
2018-06-13T07:50:31.976Z,21.80
2018-06-13T07:53:02.091Z,24.17
2018-06-13T07:55:32.302Z,27.80
2018-06-13T07:58:02.476Z,24.40
2018-06-13T08:00:32.670Z,19.30
2018-06-13T08:03:02.867Z,24.90
2018-06-13T08:05:33.116Z,27.40
2018-06-13T08:08:03.296Z,26.80
2018-06-13T08:10:33.592Z,21.63
2018-06-13T08:13:03.759Z,23.10
2018-06-13T08:15:34.035Z,20.30
2018-06-13T08:18:04.308Z,19.07
2018-06-13T08:20:34.459Z,18.30
2018-06-13T08:23:04.544Z,20.60
2018-06-13T08:25:34.812Z,17.30
2018-06-13T08:28:05.006Z,20.30
2018-06-13T08:30:35.494Z,18.80
2018-06-13T08:33:05.796Z,22.07
2018-06-13T08:35:36.235Z,19.47
2018-06-13T08:38:06.643Z,18.23
2018-06-13T08:40:36.873Z,18.83
2018-06-13T08:43:07.146Z,17.53
2018-06-13T08:48:03.573Z,19.00
2018-06-13T08:50:33.863Z,16.13
2018-06-13T08:53:04.472Z,15.40
2018-06-13T08:55:34.828Z,16.43
2018-06-13T08:58:05.365Z,16.07
2018-06-13T09:00:35.679Z,17.70
2018-06-13T09:03:06.011Z,26.83
2018-06-13T09:05:36.332Z,23.03
2018-06-13T09:08:06.563Z,19.67
2018-06-13T09:10:36.877Z,19.77
2018-06-13T09:13:07.201Z,18.40
2018-06-13T09:15:37.622Z,18.40
2018-06-13T09:18:07.801Z,18.60
2018-06-13T09:20:38.071Z,16.50
2018-06-13T09:23:08.443Z,16.53
2018-06-13T09:25:38.715Z,20.07
2018-06-13T09:28:09.409Z,33.07
2018-06-13T09:30:39.600Z,15.70
2018-06-13T09:33:09.857Z,17.23
2018-06-13T09:35:39.797Z,17.43
2018-06-13T09:38:09.899Z,22.20
2018-06-13T09:40:40.260Z,20.20
2018-06-13T09:43:10.444Z,21.80
2018-06-13T09:45:40.594Z,20.30
2018-06-13T09:48:11.110Z,25.30
2018-06-13T09:50:41.342Z,23.70
2018-06-13T09:53:11.432Z,31.93
2018-06-13T09:55:41.695Z,28.23
2018-06-13T09:58:11.895Z,31.07
2018-06-13T10:00:47.663Z,35.60
2018-06-13T10:03:18.026Z,32.13
2018-06-13T10:05:48.467Z,26.47
2018-06-13T10:08:18.872Z,25.20
2018-06-13T10:10:49.356Z,25.03
2018-06-13T10:13:19.690Z,26.10
2018-06-13T10:15:49.678Z,31.47
2018-06-13T10:18:19.965Z,21.20
2018-06-13T10:20:50.166Z,21.13
2018-06-13T10:23:20.702Z,21.03
2018-06-13T10:25:50.764Z,23.60
2018-06-13T10:28:21.054Z,17.90
2018-06-13T10:30:51.248Z,19.63
2018-06-13T10:33:21.473Z,19.10
2018-06-13T10:35:51.249Z,23.30
2018-06-13T10:38:21.373Z,21.53
2018-06-13T10:40:51.611Z,19.50
2018-06-13T10:43:21.888Z,19.70
2018-06-13T10:45:52.134Z,19.77
2018-06-13T10:48:22.303Z,17.80
2018-06-13T10:50:52.582Z,15.23
2018-06-13T10:53:22.911Z,15.50
2018-06-13T10:55:53.225Z,18.60
2018-06-13T10:58:23.352Z,18.47
2018-06-13T11:00:53.875Z,30.43
2018-06-13T11:03:24.111Z,19.03
2018-06-13T11:05:54.119Z,21.97
2018-06-13T11:08:24.511Z,22.43
2018-06-13T11:10:54.668Z,23.53
2018-06-13T11:13:24.783Z,22.90
2018-06-13T11:15:54.973Z,19.13
2018-06-13T11:18:25.140Z,16.33
2018-06-13T11:20:55.349Z,16.10
2018-06-13T11:23:25.480Z,17.73
2018-06-13T11:25:55.618Z,17.47
2018-06-13T11:28:25.826Z,17.27
2018-06-13T11:30:56.051Z,18.70
2018-06-13T11:33:26.420Z,17.27
2018-06-13T11:35:56.717Z,27.47
2018-06-13T11:38:26.924Z,22.20
2018-06-13T11:40:57.051Z,17.40
2018-06-13T11:43:27.178Z,25.67
2018-06-13T11:45:57.517Z,19.10
2018-06-13T11:48:27.699Z,20.53
2018-06-13T11:50:57.931Z,22.97
2018-06-13T11:53:28.353Z,22.30
2018-06-13T11:55:58.821Z,22.70
2018-06-13T11:58:28.996Z,20.53
2018-06-13T12:00:59.287Z,20.00
2018-06-13T12:03:29.521Z,20.70
2018-06-13T12:05:59.933Z,18.07
2018-06-13T12:08:30.540Z,16.20
2018-06-13T12:11:00.875Z,17.20
2018-06-13T12:13:31.162Z,19.73
2018-06-13T12:16:01.483Z,19.53
2018-06-13T12:18:31.719Z,19.87
2018-06-13T12:21:02.646Z,17.00
2018-06-13T12:23:32.879Z,16.40
2018-06-13T12:26:03.066Z,16.73
2018-06-13T12:28:33.423Z,20.73
2018-06-13T12:31:03.703Z,16.50
2018-06-13T12:33:33.932Z,20.37
2018-06-13T12:36:04.499Z,15.37
2018-06-13T12:38:34.446Z,18.23
2018-06-13T12:41:04.415Z,17.83
2018-06-13T12:43:34.689Z,15.80
2018-06-13T12:46:04.877Z,19.57
2018-06-13T12:48:34.994Z,20.73
2018-06-13T12:51:05.115Z,23.07
2018-06-13T12:53:35.573Z,16.43
2018-06-13T12:56:05.595Z,18.53
2018-06-13T12:58:35.684Z,18.03
2018-06-13T13:01:06.259Z,18.27
2018-06-13T13:03:36.496Z,19.73
2018-06-13T13:06:07.106Z,16.03
2018-06-13T13:08:37.904Z,19.37
2018-06-13T13:11:09.011Z,18.23
2018-06-13T13:13:39.526Z,15.40
2018-06-13T13:16:09.830Z,16.57
2018-06-13T13:18:40.183Z,17.50
2018-06-13T13:21:10.903Z,29.60
2018-06-13T13:23:40.842Z,16.80
2018-06-13T13:26:11.029Z,16.23
2018-06-13T13:28:41.202Z,18.07
2018-06-13T13:31:11.507Z,15.60
2018-06-13T13:33:41.662Z,14.23
2018-06-13T13:36:11.845Z,14.37
2018-06-13T13:38:41.987Z,16.73
2018-06-13T13:41:12.494Z,14.40
2018-06-13T13:43:43.184Z,15.87
2018-06-13T13:46:13.447Z,22.23
2018-06-13T13:48:43.585Z,16.23
2018-06-13T13:51:13.859Z,15.77
2018-06-13T13:53:44.580Z,16.17
2018-06-13T13:56:14.819Z,16.90
2018-06-13T13:58:45.457Z,13.23
2018-06-13T14:01:15.923Z,16.30
2018-06-13T14:03:46.267Z,13.17
2018-06-13T14:06:16.423Z,15.53
2018-06-13T14:08:47.406Z,15.93
2018-06-13T14:11:17.977Z,20.23
2018-06-13T14:13:51.371Z,14.50
2018-06-13T14:16:21.728Z,15.57
2018-06-13T14:18:51.966Z,13.80
2018-06-13T14:21:22.230Z,16.43
2018-06-13T14:23:52.443Z,21.37
2018-06-13T14:26:22.675Z,18.77
2018-06-13T14:28:53.080Z,15.00
2018-06-13T14:31:23.604Z,16.97
2018-06-13T14:33:54.060Z,13.83
2018-06-13T14:36:24.474Z,16.93
2018-06-13T14:38:54.689Z,20.17
2018-06-13T14:41:25.371Z,16.63
2018-06-13T14:43:55.331Z,20.47
2018-06-13T14:46:25.579Z,13.73
2018-06-13T14:48:55.644Z,15.43
2018-06-13T14:51:25.820Z,21.40
2018-06-13T14:53:57.575Z,15.33
2018-06-13T14:56:32.682Z,19.93
2018-06-13T14:59:03.482Z,20.43
2018-06-13T15:01:34.038Z,27.23
2018-06-13T15:04:04.238Z,18.00
2018-06-13T15:06:34.401Z,17.97
2018-06-13T15:09:07.706Z,17.90
2018-06-13T15:11:39.719Z,20.33
2018-06-13T15:14:09.906Z,15.53
2018-06-13T15:16:40.328Z,16.53
2018-06-13T15:19:10.704Z,17.33
2018-06-13T15:21:40.999Z,19.97
2018-06-13T15:24:11.371Z,13.67
2018-06-13T15:26:41.528Z,21.10
2018-06-13T15:29:11.643Z,16.53
2018-06-13T15:31:41.894Z,13.40
2018-06-13T15:34:12.016Z,15.63
2018-06-13T15:36:42.847Z,16.87
2018-06-13T15:39:15.050Z,12.30
2018-06-13T15:41:45.474Z,11.37
2018-06-13T15:44:15.749Z,13.27
2018-06-13T15:46:45.878Z,17.23
2018-06-13T15:49:16.206Z,12.57
2018-06-13T15:51:46.541Z,12.27
2018-06-13T15:54:16.699Z,16.53
2018-06-13T15:56:46.826Z,13.67
2018-06-13T15:59:17.216Z,12.97
2018-06-13T16:01:47.508Z,15.47
2018-06-13T16:04:17.861Z,15.77
2018-06-13T16:06:48.062Z,10.83
2018-06-13T16:09:18.166Z,14.00
2018-06-13T16:11:48.366Z,13.23
2018-06-13T16:14:18.768Z,12.63
2018-06-13T16:16:48.750Z,11.03
2018-06-13T16:19:18.965Z,11.70
2018-06-13T16:21:49.326Z,11.43
2018-06-13T16:24:19.812Z,10.20
2018-06-13T16:26:49.935Z,15.80
2018-06-13T16:29:20.262Z,10.63
2018-06-13T16:31:50.382Z,12.30
2018-06-13T16:34:20.392Z,20.80
2018-06-13T16:36:50.441Z,14.77
2018-06-13T16:39:20.857Z,11.40
2018-06-13T16:41:50.964Z,9.50
2018-06-13T16:44:21.183Z,10.77
2018-06-13T16:46:51.300Z,12.20
2018-06-13T16:49:21.419Z,11.63
2018-06-13T16:51:55.950Z,8.17
2018-06-13T16:54:37.022Z,13.00
2018-06-13T16:57:06.962Z,11.87
2018-06-13T16:59:37.771Z,13.43
2018-06-13T17:02:07.912Z,9.20
2018-06-13T17:04:38.318Z,8.27
2018-06-13T17:07:08.495Z,10.20
2018-06-13T17:09:39.171Z,12.80
2018-06-13T17:12:09.446Z,9.43
2018-06-13T17:14:39.752Z,9.63
2018-06-13T17:17:10.319Z,11.97
2018-06-13T17:19:40.906Z,12.63
2018-06-13T17:22:11.286Z,10.40
2018-06-13T17:24:41.654Z,13.43
2018-06-13T17:27:11.926Z,7.30
2018-06-13T17:29:42.179Z,10.30
2018-06-13T17:32:12.415Z,14.53
2018-06-13T17:34:42.639Z,9.07
2018-06-13T17:37:13.146Z,10.27
2018-06-13T17:39:43.491Z,8.33
2018-06-13T17:42:13.806Z,7.47
2018-06-13T17:44:44.278Z,8.37
2018-06-13T17:47:14.491Z,7.50
2018-06-13T17:49:44.685Z,8.73
2018-06-13T17:52:15.167Z,8.00
2018-06-13T17:54:45.459Z,10.37
2018-06-13T17:57:15.574Z,6.53
2018-06-13T17:59:45.775Z,7.60
2018-06-13T18:02:16.229Z,7.70
2018-06-13T18:04:46.422Z,6.40
2018-06-13T18:07:16.626Z,8.00
2018-06-13T18:09:46.847Z,7.43
2018-06-13T18:12:17.014Z,6.73
2018-06-13T18:14:47.378Z,6.77
2018-06-13T18:17:17.739Z,5.53
2018-06-13T18:19:47.854Z,6.50
2018-06-13T18:22:18.003Z,8.50
2018-06-13T18:24:48.308Z,5.90
2018-06-13T18:27:18.572Z,6.03
2018-06-13T18:29:48.954Z,7.53
2018-06-13T18:32:19.106Z,7.37
2018-06-13T18:34:49.238Z,7.77
2018-06-13T18:37:19.315Z,8.73
2018-06-13T18:39:49.810Z,6.60
2018-06-13T18:42:20.276Z,5.70
2018-06-13T18:44:50.471Z,6.50
2018-06-13T18:47:20.721Z,10.37
2018-06-13T18:49:50.879Z,7.30
2018-06-13T18:52:21.183Z,9.03
2018-06-13T18:54:51.326Z,9.33
2018-06-13T18:57:21.526Z,12.23
2018-06-13T18:59:51.929Z,10.13
2018-06-13T19:02:22.176Z,10.00
2018-06-13T19:04:52.752Z,13.20
2018-06-13T19:07:23.285Z,11.87
2018-06-13T19:09:53.468Z,11.03
2018-06-13T19:12:24.055Z,10.03
2018-06-13T19:14:54.538Z,14.43
2018-06-13T19:17:24.718Z,12.53
2018-06-13T19:19:54.868Z,16.00
2018-06-13T19:22:25.060Z,12.03
2018-06-13T19:24:55.431Z,15.93
2018-06-13T19:27:25.708Z,11.70
2018-06-13T19:29:55.834Z,12.63
2018-06-13T19:32:26.236Z,13.23
2018-06-13T19:34:56.793Z,13.93
2018-06-13T19:37:27.090Z,13.43
2018-06-13T19:39:57.328Z,13.70
2018-06-13T19:42:27.638Z,12.03
2018-06-13T19:44:58.231Z,12.10
2018-06-13T19:47:33.715Z,14.37
2018-06-13T19:50:04.126Z,12.93
2018-06-13T19:52:39.298Z,16.93
2018-06-13T19:55:15.389Z,17.60
2018-06-13T19:57:45.707Z,13.10
2018-06-13T20:00:16.443Z,19.40
2018-06-13T20:02:51.531Z,15.83
2018-06-13T20:05:26.827Z,13.20
2018-06-13T20:07:57.631Z,12.73
2018-06-13T20:10:27.846Z,17.73
2018-06-13T20:13:03.039Z,14.70
2018-06-13T20:15:38.302Z,14.20
2018-06-13T20:18:13.859Z,15.50
2018-06-13T20:20:44.440Z,13.30
2018-06-13T20:23:14.893Z,15.77
2018-06-13T20:25:50.662Z,19.47
2018-06-13T20:28:32.543Z,15.20
2018-06-13T20:31:07.643Z,15.37
2018-06-13T20:33:37.854Z,14.47
2018-06-13T20:36:07.978Z,15.40
2018-06-13T20:38:38.191Z,15.30
2018-06-13T20:41:08.213Z,12.50
2018-06-13T20:43:38.578Z,16.93
2018-06-13T20:46:08.839Z,12.80
2018-06-13T20:48:39.184Z,14.47
2018-06-13T20:51:09.608Z,16.63
2018-06-13T20:53:40.135Z,21.37
2018-06-13T20:56:10.324Z,12.07
2018-06-13T20:58:40.578Z,18.23
2018-06-13T21:01:11.015Z,12.97
2018-06-13T21:03:41.167Z,14.47
2018-06-13T21:06:11.352Z,15.03
2018-06-13T21:08:41.781Z,12.03
2018-06-13T21:11:12.051Z,11.23
2018-06-13T21:13:42.645Z,11.97
2018-06-13T21:16:12.822Z,13.80
2018-06-13T21:18:43.056Z,14.10
2018-06-13T21:21:13.319Z,11.80
2018-06-13T21:23:43.599Z,10.70
2018-06-13T21:26:13.889Z,11.30
2018-06-13T21:28:43.973Z,10.20
2018-06-13T21:31:14.895Z,12.07
2018-06-13T21:33:45.141Z,11.30
2018-06-13T21:36:15.504Z,10.50
2018-06-13T21:38:45.965Z,10.43
2018-06-13T21:41:16.458Z,10.20
2018-06-13T21:43:46.650Z,18.13
2018-06-13T21:46:16.991Z,11.47
2018-06-13T21:48:47.290Z,11.27
2018-06-13T21:51:18.199Z,9.90
2018-06-13T21:53:48.549Z,9.87
2018-06-13T21:56:18.641Z,8.20
2018-06-13T21:58:49.023Z,11.70
2018-06-13T22:01:19.485Z,9.80
2018-06-13T22:03:49.455Z,10.20
2018-06-13T22:06:19.793Z,9.53
2018-06-13T22:08:50.050Z,8.50
2018-06-13T22:11:20.167Z,8.90
2018-06-13T22:13:50.440Z,9.13
2018-06-13T22:16:20.555Z,11.57
2018-06-13T22:18:50.749Z,8.73
2018-06-13T22:21:20.896Z,7.40
2018-06-13T22:23:50.973Z,9.33
2018-06-13T22:26:21.287Z,8.37
2018-06-13T22:28:51.463Z,8.37
2018-06-13T22:31:21.825Z,10.00
2018-06-13T22:33:52.047Z,7.63
2018-06-13T22:36:22.184Z,13.87
2018-06-13T22:38:52.432Z,8.90
2018-06-13T22:41:23.070Z,7.70
2018-06-13T22:43:53.313Z,9.00
2018-06-13T22:46:23.478Z,9.87
2018-06-13T22:48:53.509Z,11.43
2018-06-13T22:51:24.462Z,9.53
2018-06-13T22:53:54.990Z,7.60
2018-06-13T22:56:25.667Z,8.13
2018-06-13T22:58:56.012Z,8.97
2018-06-13T23:01:26.194Z,11.70
2018-06-13T23:03:56.557Z,8.07
2018-06-13T23:06:26.725Z,9.90
2018-06-13T23:08:56.876Z,9.47
2018-06-13T23:11:27.122Z,11.73
2018-06-13T23:13:57.316Z,14.23
2018-06-13T23:16:27.427Z,9.27
2018-06-13T23:18:57.623Z,11.43
2018-06-13T23:21:27.794Z,10.23
2018-06-13T23:24:01.011Z,9.17
2018-06-13T23:26:31.177Z,11.00
2018-06-13T23:29:01.224Z,12.03
2018-06-13T23:31:31.830Z,12.40
2018-06-13T23:34:02.179Z,10.27
2018-06-13T23:36:32.628Z,10.70
2018-06-13T23:39:03.051Z,9.17
2018-06-13T23:41:33.267Z,10.80
2018-06-13T23:44:03.704Z,9.90
2018-06-13T23:46:34.218Z,8.93
2018-06-13T23:49:04.782Z,11.03
2018-06-13T23:51:35.127Z,11.63
2018-06-13T23:54:06.113Z,8.80
2018-06-13T23:56:36.097Z,9.70
2018-06-13T23:59:07.171Z,11.30
